Time;durP1;ratioP1;P1;durP2;ratioP2;P2;SDS_P1;SDS_P2;PMS_P1;PMS_P2;Temp;Humidity;BMP_temperature;BMP_pressure;BME280_temperature;BME280_humidity;BME280_pressure;Samples;Min_cycle;Max_cycle;Signal;HPM_P1;HPM_P2
2023/12/15 07:39:32;;;;;;;;;9.00;9.00;;;;;20.66;46.31;103302.88;6029132;23;46573;-70
2023/12/15 07:41:57;;;;;;;;;9.67;9.67;;;;;20.56;46.86;103288.63;4931925;28;46727;-73
2023/12/15 07:44:22;;;;;;;;;9.00;8.67;;;;;20.57;46.52;103298.25;4936465;28;46254;-75
2023/12/15 07:46:48;;;;;;;;;5.67;5.67;;;;;20.65;46.57;103310.94;4919178;28;45351;-74
2023/12/15 07:49:13;;;;;;;;;10.00;8.67;;;;;20.64;46.54;103323.31;4937425;28;45312;-73
2023/12/15 07:51:39;;;;;;;;;10.33;9.33;;;;;20.57;46.56;103317.63;4936804;28;45267;-73
2023/12/15 07:54:04;;;;;;;;;8.33;6.33;;;;;20.36;46.76;103294.38;4936732;28;46840;-73
2023/12/15 07:56:30;;;;;;;;;9.00;8.67;;;;;20.56;46.50;103323.84;4936578;28;45524;-72
2023/12/15 07:58:56;;;;;;;;;8.67;8.67;;;;;20.63;47.03;103326.91;4937076;28;45531;-72
2023/12/15 08:01:23;;;;;;;;;10.33;8.33;;;;;20.69;46.91;103328.25;4937069;28;45447;-73
2023/12/15 08:03:50;;;;;;;;;9.67;7.67;;;;;20.58;47.06;103303.41;4934982;28;47101;-76
2023/12/15 08:06:16;;;;;;;;;11.00;9.00;;;;;20.70;47.22;103328.16;4919573;28;45459;-74
2023/12/15 08:08:42;;;;;;;;;8.33;8.33;;;;;20.71;46.90;103331.66;4907609;28;45916;-75
2023/12/15 08:11:09;;;;;;;;;8.67;8.67;;;;;20.68;47.09;103326.59;4929766;28;46003;-75
2023/12/15 08:13:35;;;;;;;;;10.67;7.67;;;;;20.67;46.84;103332.81;4930567;28;46374;-75
2023/12/15 08:16:03;;;;;;;;;8.25;7.75;;;;;20.42;46.68;103302.84;4930916;28;45390;-75
2023/12/15 08:18:28;;;;;;;;;10.00;10.00;;;;;20.68;47.10;103353.03;4934273;28;45614;-77
2023/12/15 08:20:53;;;;;;;;;6.75;6.75;;;;;20.71;46.89;103371.34;4932771;28;45529;-73
2023/12/15 08:23:19;;;;;;;;;8.75;7.75;;;;;20.70;46.96;103367.84;4931344;28;46577;-76
2023/12/15 08:25:44;;;;;;;;;9.00;8.75;;;;;20.71;46.95;103360.75;4933299;28;45510;-72
2023/12/15 08:28:11;;;;;;;;;11.67;9.00;;;;;20.66;46.79;103366.34;4934368;28;45650;-73
2023/12/15 08:30:37;;;;;;;;;11.00;10.33;;;;;20.70;46.44;103372.28;4933048;28;45380;-75
2023/12/15 08:33:02;;;;;;;;;8.75;8.75;;;;;20.67;46.72;103367.19;4933396;28;45587;-73
2023/12/15 08:35:27;;;;;;;;;8.33;8.33;;;;;20.65;46.78;103362.03;4932637;28;45562;-73
2023/12/15 08:37:54;;;;;;;;;10.50;9.00;;;;;20.71;46.86;103374.00;4933384;28;45471;-76
2023/12/15 08:40:20;;;;;;;;;8.67;8.00;;;;;20.70;46.48;103375.78;4933651;28;45636;-76
2023/12/15 08:42:45;;;;;;;;;8.00;8.00;;;;;20.63;46.53;103351.53;4933242;28;45859;-74
2023/12/15 08:45:10;;;;;;;;;9.67;8.67;;;;;20.66;46.92;103361.06;4934408;28;45498;-76
2023/12/15 08:47:36;;;;;;;;;9.25;9.00;;;;;20.70;46.87;103370.50;4934015;28;45383;-75
2023/12/15 08:50:02;;;;;;;;;13.50;10.50;;;;;20.68;46.51;103367.13;4933421;28;45655;-74
2023/12/15 08:52:28;;;;;;;;;11.25;9.00;;;;;20.65;46.60;103361.19;4931306;28;46465;-71
2023/12/15 08:54:53;;;;;;;;;10.33;10.00;;;;;20.70;46.89;103372.28;4933404;28;51432;-72
2023/12/15 08:57:18;;;;;;;;;9.33;8.33;;;;;20.57;46.86;103362.59;4916106;28;49983;-74
2023/12/15 08:59:43;;;;;;;;;8.75;8.75;;;;;20.65;46.46;103377.06;4933599;28;45507;-75
2023/12/15 09:02:09;;;;;;;;;11.00;11.00;;;;;20.71;46.27;103381.91;4933374;28;64382;-75
2023/12/15 09:04:34;;;;;;;;;11.50;11.50;;;;;20.66;46.69;103387.50;4934336;28;45959;-75
2023/12/15 09:06:59;;;;;;;;;9.75;8.75;;;;;20.61;46.59;103379.91;4933636;28;45381;-75
2023/12/15 09:09:25;;;;;;;;;11.00;10.25;;;;;20.71;46.66;103398.63;4933076;28;45539;-75
2023/12/15 09:11:50;;;;;;;;;8.75;8.50;;;;;20.73;46.65;103409.13;4935688;28;49568;-73
2023/12/15 09:14:16;;;;;;;;;10.00;8.67;;;;;20.72;46.38;103410.06;4935597;28;46068;-75
2023/12/15 09:16:42;;;;;;;;;11.00;9.00;;;;;20.71;46.75;103414.50;4936653;28;45545;-75
2023/12/15 09:19:08;;;;;;;;;10.00;10.00;;;;;20.72;46.62;103420.63;4936504;28;45562;-75
2023/12/15 09:21:34;;;;;;;;;9.25;9.25;;;;;20.72;46.41;103421.50;4935144;28;45489;-74
2023/12/15 09:23:59;;;;;;;;;13.33;10.33;;;;;20.73;46.62;103425.00;4943389;28;45436;-74
2023/12/15 09:26:25;;;;;;;;;13.25;11.75;;;;;20.57;46.67;103401.41;4942985;28;45414;-74
2023/12/15 09:28:51;;;;;;;;;10.00;10.00;;;;;20.73;46.50;103427.63;4943418;28;45674;-74
2023/12/15 09:31:16;;;;;;;;;12.75;11.75;;;;;20.72;46.56;103440.00;4934214;28;45498;-74
2023/12/15 09:33:41;;;;;;;;;12.50;11.50;;;;;20.75;46.38;103441.59;4933171;28;45533;-74
2023/12/15 09:36:07;;;;;;;;;9.25;9.25;;;;;20.74;46.81;103448.69;4934199;28;49825;-75
2023/12/15 09:38:32;;;;;;;;;10.00;9.00;;;;;20.75;46.31;103470.69;4933018;28;45474;-75
2023/12/15 09:40:58;;;;;;;;;10.67;9.33;;;;;20.73;46.40;103472.59;4931317;28;46451;-75
2023/12/15 09:43:23;;;;;;;;;10.00;10.00;;;;;20.73;46.62;103476.09;4932577;28;46087;-72
2023/12/15 09:45:49;;;;;;;;;12.00;9.33;;;;;20.73;46.88;103489.34;4932855;28;45784;-75
2023/12/15 09:48:17;;;;;;;;;12.00;8.00;;;;;20.74;46.63;103488.38;4932394;28;45888;-75
2023/12/15 09:50:51;;;;;;;;;10.75;10.00;;;;;20.74;46.81;103491.00;4932645;28;47280;-75
2023/12/15 09:53:18;;;;;;;;;10.67;10.67;;;;;20.66;46.52;103489.88;4932490;28;45390;-74
2023/12/15 09:55:44;;;;;;;;;10.00;9.00;;;;;20.68;46.73;103511.75;4933730;28;45362;-75
2023/12/15 09:58:10;;;;;;;;;10.00;10.00;;;;;20.76;46.05;103527.97;4932667;28;45921;-75
2023/12/15 10:00:36;;;;;;;;;11.00;10.00;;;;;20.76;46.25;103532.41;4931805;28;45845;-75
2023/12/15 10:03:01;;;;;;;;;10.25;10.25;;;;;20.76;46.24;103556.22;4932576;28;45600;-75
2023/12/15 10:05:28;;;;;;;;;8.25;8.25;;;;;20.72;46.64;103564.34;4932572;28;45522;-76
2023/12/15 10:07:53;;;;;;;;;11.25;10.00;;;;;20.74;46.47;103583.63;4932547;28;45784;-75
2023/12/15 10:10:21;;;;;;;;;13.50;10.00;;;;;20.76;46.11;103583.53;4914938;28;48121;-75
2023/12/15 10:12:46;;;;;;;;;9.75;9.75;;;;;20.73;46.34;103581.09;4933084;28;45640;-76
2023/12/15 10:15:12;;;;;;;;;11.00;11.00;;;;;20.68;46.52;103583.19;4933095;28;45593;-75
2023/12/15 10:17:37;;;;;;;;;11.00;11.00;;;;;20.50;46.34;103555.25;4931664;28;47843;-75
2023/12/15 10:20:10;;;;;;;;;9.75;9.75;;;;;20.76;47.08;103594.09;4930744;28;46545;-73
2023/12/15 10:22:38;;;;;;;;;9.50;9.50;;;;;20.75;46.46;103597.69;4931954;28;45951;-73
2023/12/15 10:25:23;;;;;;;;;11.00;11.00;;;;;20.76;46.72;103601.19;4931887;28;45542;-73
2023/12/15 10:27:49;;;;;;;;;9.25;9.25;;;;;20.70;46.34;103586.56;4929240;28;45336;-75
2023/12/15 10:30:16;;;;;;;;;9.00;8.50;;;;;20.74;46.10;103594.19;4931429;28;46229;-74
2023/12/15 10:32:43;;;;;;;;;11.75;10.50;;;;;20.76;46.61;103598.53;4933189;28;45508;-75
2023/12/15 10:35:10;;;;;;;;;11.25;8.75;;;;;20.70;46.47;103590.06;4932303;28;45462;-76
2023/12/15 10:37:36;;;;;;;;;11.75;10.25;;;;;20.26;46.48;103524.22;4932058;28;45506;-76
2023/12/15 10:40:02;;;;;;;;;10.75;10.75;;;;;20.72;46.40;103593.47;4930306;28;45637;-73
2023/12/15 10:42:29;;;;;;;;;8.67;8.67;;;;;20.73;46.11;103599.59;4931926;28;45394;-75
2023/12/15 10:44:57;;;;;;;;;9.00;8.75;;;;;20.73;46.20;103589.88;4929978;28;45679;-72
2023/12/15 10:47:24;;;;;;;;;8.50;8.50;;;;;20.75;46.62;103589.75;4930972;28;45505;-73
2023/12/15 10:49:52;;;;;;;;;8.75;8.75;;;;;20.68;46.45;103562.03;4931537;28;46342;-76
2023/12/15 10:52:21;;;;;;;;;9.25;9.00;;;;;20.74;46.21;103570.38;4931421;28;45359;-74
2023/12/15 10:54:48;;;;;;;;;9.00;8.75;;;;;20.75;46.21;103584.47;4930727;28;45591;-76
2023/12/15 10:57:14;;;;;;;;;8.00;8.00;;;;;20.76;46.45;103582.66;4930241;28;45806;-75
2023/12/15 10:59:39;;;;;;;;;9.75;8.75;;;;;20.72;46.00;103553.78;4931715;28;47415;-74
2023/12/15 11:02:09;;;;;;;;;8.33;8.33;;;;;20.77;45.80;103560.53;4930706;28;45462;-76
2023/12/15 11:04:34;;;;;;;;;8.75;8.50;;;;;20.77;46.39;103573.75;4931887;28;45647;-73
2023/12/15 11:07:00;;;;;;;;;11.75;10.50;;;;;20.77;46.54;103581.69;4930896;28;45691;-73
2023/12/15 11:09:36;;;;;;;;;9.00;7.50;;;;;20.78;46.27;103573.69;4930202;28;47170;-75
2023/12/15 11:12:23;;;;;;;;;9.75;7.75;;;;;20.77;46.24;103579.91;4931586;28;45662;-75
2023/12/15 11:15:05;;;;;;;;;12.00;10.75;;;;;20.77;46.09;103576.41;4930477;28;45492;-73
2023/12/15 11:17:31;;;;;;;;;9.75;8.00;;;;;20.76;46.17;103574.72;4931803;28;46512;-75
2023/12/15 11:19:59;;;;;;;;;9.00;7.67;;;;;20.76;45.84;103586.16;4935092;28;47177;-76
2023/12/15 11:22:26;;;;;;;;;11.00;9.00;;;;;20.77;46.05;103589.63;4936701;28;45260;-78
2023/12/15 11:24:51;;;;;;;;;9.25;9.25;;;;;20.67;46.05;103570.91;4938029;28;45375;-85
2023/12/15 11:27:16;;;;;;;;;8.25;7.00;;;;;20.77;46.03;103581.69;4937389;28;45320;-75
2023/12/15 11:29:42;;;;;;;;;9.33;9.33;;;;;20.76;46.59;103593.25;4937302;28;45618;-74
2023/12/15 11:32:35;;;;;;;;;4.33;4.33;;;;;20.77;46.14;103611.66;4937126;28;45366;-77
2023/12/15 11:35:01;;;;;;;;;7.33;6.33;;;;;20.69;46.06;103612.19;4936817;28;45415;-76
2023/12/15 11:37:28;;;;;;;;;9.25;8.25;;;;;20.76;46.30;103623.22;4936840;28;45296;-79
2023/12/15 11:39:55;;;;;;;;;10.67;7.67;;;;;20.72;46.78;103621.72;4936837;28;46407;-78
2023/12/15 11:42:21;;;;;;;;;8.25;7.75;;;;;20.77;46.54;103627.53;4936940;28;45342;-77
2023/12/15 11:44:47;;;;;;;;;9.75;8.00;;;;;20.78;46.28;103631.91;4936901;28;45400;-77
2023/12/15 11:47:12;;;;;;;;;7.75;7.75;;;;;20.71;46.29;103606.81;4937187;28;45283;-77
2023/12/15 11:49:42;;;;;;;;;6.00;5.75;;;;;20.78;46.52;103623.94;4935236;28;48323;-76
2023/12/15 11:52:10;;;;;;;;;8.25;7.50;;;;;20.67;46.55;103614.09;4938777;28;45438;-77
2023/12/15 11:54:36;;;;;;;;;6.67;6.67;;;;;20.68;46.45;103615.78;4940317;28;45281;-76
2023/12/15 11:57:01;;;;;;;;;9.33;7.33;;;;;20.81;46.56;103626.41;4940336;28;45393;-78
2023/12/15 11:59:36;;;;;;;;;9.00;6.00;;;;;20.71;46.02;103602.34;4940030;28;45375;-78
2023/12/15 12:02:01;;;;;;;;;9.00;7.00;;;;;20.82;46.51;103625.44;4940101;28;45316;-78
2023/12/15 12:04:29;;;;;;;;;12.00;9.33;;;;;20.71;46.16;103598.88;4939889;28;45539;-78
2023/12/15 12:06:55;;;;;;;;;7.75;7.75;;;;;20.73;46.42;103596.97;4940252;28;45514;-77
2023/12/15 12:09:22;;;;;;;;;7.33;7.00;;;;;20.80;46.60;103607.97;4939781;28;46010;-77
2023/12/15 12:11:47;;;;;;;;;7.00;7.00;;;;;20.81;45.93;103610.53;4939998;28;45425;-78
2023/12/15 12:14:14;;;;;;;;;6.00;6.00;;;;;20.78;46.34;103616.00;4940156;28;45304;-77
2023/12/15 12:16:39;;;;;;;;;7.75;7.25;;;;;20.83;46.18;103623.63;4940192;28;45385;-77
2023/12/15 12:19:04;;;;;;;;;8.00;7.00;;;;;20.83;46.53;103621.84;4938912;28;61556;-78
2023/12/15 12:21:31;;;;;;;;;6.00;6.00;;;;;20.73;46.71;103608.41;4939888;28;45356;-77
2023/12/15 12:23:57;;;;;;;;;6.67;6.67;;;;;20.71;46.46;103607.63;4939896;28;45359;-77
2023/12/15 12:26:22;;;;;;;;;6.67;6.00;;;;;20.79;45.93;103611.56;4939989;28;45530;-76
2023/12/15 12:28:50;;;;;;;;;9.67;8.00;;;;;20.77;46.54;103611.66;4939651;28;46836;-78
2023/12/15 12:31:16;;;;;;;;;10.00;8.00;;;;;20.72;46.68;103601.41;4939754;28;45331;-78
2023/12/15 12:33:41;;;;;;;;;8.67;8.67;;;;;20.84;46.11;103617.41;4939561;28;45239;-75
2023/12/15 12:36:08;;;;;;;;;9.00;8.00;;;;;20.79;46.19;103617.69;4939555;28;45371;-79
2023/12/15 12:38:36;;;;;;;;;9.00;6.00;;;;;20.81;46.10;103633.47;4939243;28;46164;-73
2023/12/15 12:41:05;;;;;;;;;8.33;8.00;;;;;20.71;46.79;103617.38;4939011;28;45481;-74
2023/12/15 12:43:31;;;;;;;;;11.67;7.67;;;;;20.72;46.51;103613.78;4939235;28;45464;-74
2023/12/15 12:45:57;;;;;;;;;9.67;7.00;;;;;20.76;46.66;103615.28;4939511;28;45352;-73
2023/12/15 12:48:22;;;;;;;;;7.67;7.00;;;;;20.77;47.26;103616.09;4939085;28;45392;-72
2023/12/15 12:50:47;;;;;;;;;10.00;6.33;;;;;20.68;47.09;103605.22;4939269;28;45352;-75
2023/12/15 12:53:14;;;;;;;;;8.00;6.33;;;;;20.87;47.26;103632.22;4954552;28;45363;-74
2023/12/15 12:55:39;;;;;;;;;11.00;8.67;;;;;20.70;46.95;103600.66;4939486;28;45388;-73
2023/12/15 12:58:05;;;;;;;;;6.67;6.67;;;;;20.88;47.17;103632.09;4953873;28;47320;-74
2023/12/15 13:00:30;;;;;;;;;10.67;8.33;;;;;20.82;47.27;103620.13;4939399;28;45412;-74
2023/12/15 13:02:55;;;;;;;;;9.33;8.33;;;;;20.62;47.22;103582.66;4938612;28;45413;-74
2023/12/15 13:05:21;;;;;;;;;8.00;8.00;;;;;20.92;47.75;103628.28;4939322;28;45407;-75
2023/12/15 13:07:46;;;;;;;;;6.33;6.00;;;;;20.88;47.29;103621.53;4938882;28;45859;-73
2023/12/15 13:10:14;;;;;;;;;5.33;5.33;;;;;20.93;48.57;103626.50;4939122;28;45362;-75
2023/12/15 13:12:42;;;;;;;;;7.67;7.67;;;;;20.94;47.77;103625.56;4939041;28;45439;-74
2023/12/15 13:15:10;;;;;;;;;5.67;5.67;;;;;20.94;47.78;103620.25;4936310;28;45548;-74
2023/12/15 13:17:36;;;;;;;;;9.33;8.00;;;;;20.94;47.63;103625.56;4900181;28;46271;-74
2023/12/15 13:20:01;;;;;;;;;7.00;7.00;;;;;20.93;47.53;103629.16;4935006;28;45657;-74
2023/12/15 13:22:28;;;;;;;;;8.33;8.33;;;;;20.91;47.52;103633.69;4934787;28;47123;-75
2023/12/15 13:24:53;;;;;;;;;7.33;6.33;;;;;20.92;47.40;103638.88;4935126;28;46062;-74
2023/12/15 13:27:19;;;;;;;;;6.33;6.33;;;;;20.92;47.29;103640.69;4932568;28;46655;-74
2023/12/15 13:29:44;;;;;;;;;8.33;8.33;;;;;20.90;47.58;103643.44;4934214;28;45654;-74
2023/12/15 13:32:09;;;;;;;;;5.33;5.33;;;;;20.90;47.80;103654.00;4934113;28;45846;-74
2023/12/15 13:34:34;;;;;;;;;7.00;5.67;;;;;20.90;47.36;103648.72;4934855;28;45578;-73
2023/12/15 13:37:00;;;;;;;;;6.00;6.00;;;;;20.87;47.70;103645.47;4935305;28;58500;-73
2023/12/15 13:39:25;;;;;;;;;6.33;6.33;;;;;20.87;47.36;103645.47;4934349;28;45490;-73
2023/12/15 13:41:51;;;;;;;;;7.00;6.00;;;;;20.88;47.47;103648.00;4934605;28;45828;-73
2023/12/15 13:44:18;;;;;;;;;8.67;6.33;;;;;20.75;47.76;103645.31;4934440;28;45402;-74
2023/12/15 13:46:44;;;;;;;;;7.33;6.33;;;;;20.85;47.41;103666.72;4934418;28;46261;-75
2023/12/15 13:49:09;;;;;;;;;6.00;6.00;;;;;20.86;47.55;103671.06;4933269;28;45361;-73
2023/12/15 13:51:35;;;;;;;;;5.33;5.33;;;;;20.81;47.38;103668.72;4934462;28;47958;-74
2023/12/15 13:54:01;;;;;;;;;6.00;6.00;;;;;20.84;47.21;103681.75;4933544;28;45969;-75
2023/12/15 13:56:28;;;;;;;;;6.67;6.00;;;;;20.77;47.35;103677.81;4934479;28;46290;-74
2023/12/15 13:58:53;;;;;;;;;6.33;6.33;;;;;20.79;47.49;103675.09;4933701;28;45386;-74
2023/12/15 14:01:19;;;;;;;;;5.67;4.67;;;;;20.77;47.03;103672.53;4934464;28;45317;-75
2023/12/15 14:03:44;;;;;;;;;10.33;6.33;;;;;20.68;46.97;103655.47;4934533;28;45487;-74
2023/12/15 14:06:11;;;;;;;;;6.67;5.00;;;;;20.82;47.12;103682.78;4933168;28;70951;-74
2023/12/15 14:08:37;;;;;;;;;6.00;5.67;;;;;20.79;47.42;103686.50;4934259;28;45324;-75
2023/12/15 14:11:04;;;;;;;;;6.00;6.00;;;;;20.55;47.18;103644.00;4934442;28;45410;-75
2023/12/15 14:13:30;;;;;;;;;5.67;5.67;;;;;20.82;47.46;103685.44;4933847;28;45610;-73
2023/12/15 14:15:56;;;;;;;;;7.00;5.67;;;;;20.77;47.34;103667.22;4931977;28;47077;-75
2023/12/15 14:18:21;;;;;;;;;6.33;5.00;;;;;20.82;47.08;103680.16;4933809;28;45964;-73
2023/12/15 14:20:48;;;;;;;;;9.00;7.00;;;;;20.54;47.26;103639.66;4933997;28;45502;-73
2023/12/15 14:23:13;;;;;;;;;7.67;5.67;;;;;20.76;47.02;103670.00;4933732;28;45667;-74
2023/12/15 14:25:39;;;;;;;;;7.33;6.00;;;;;20.79;47.08;103686.50;4933985;28;45561;-72
2023/12/15 14:28:04;;;;;;;;;4.67;4.67;;;;;20.82;47.28;103694.22;4933492;28;45600;-72
2023/12/15 14:30:29;;;;;;;;;7.33;6.67;;;;;20.81;47.44;103700.50;4934458;28;45510;-74
2023/12/15 14:32:57;;;;;;;;;6.00;5.00;;;;;20.81;47.28;103699.63;4933679;28;46244;-75
2023/12/15 14:35:23;;;;;;;;;7.33;6.00;;;;;20.77;47.27;103690.19;4933456;28;46010;-75
2023/12/15 14:37:48;;;;;;;;;4.33;4.33;;;;;20.80;47.36;103704.06;4934075;28;45305;-74
2023/12/15 14:40:13;;;;;;;;;4.67;4.33;;;;;20.81;46.89;103699.63;4933499;28;45652;-74
2023/12/15 14:42:39;;;;;;;;;5.67;4.67;;;;;20.77;47.28;103692.84;4933559;28;45378;-75
2023/12/15 14:45:05;;;;;;;;;1.00;1.00;;;;;20.76;47.10;103691.16;4933363;28;45348;-75
2023/12/15 14:47:30;;;;;;;;;8.00;4.67;;;;;20.80;47.23;103704.06;4934125;28;45516;-73
2023/12/15 14:49:55;;;;;;;;;5.33;5.00;;;;;20.79;47.20;103707.66;4934203;28;45335;-74
2023/12/15 14:52:21;;;;;;;;;5.33;4.67;;;;;20.79;47.10;103714.78;4933662;28;46483;-74
2023/12/15 14:54:46;;;;;;;;;6.67;6.67;;;;;20.72;47.14;103704.59;4933141;28;52552;-74
2023/12/15 14:57:13;;;;;;;;;4.67;4.67;;;;;20.77;46.91;103719.28;4915649;28;45665;-74
2023/12/15 14:59:38;;;;;;;;;6.00;5.33;;;;;20.77;47.16;103725.44;4933011;28;45458;-74
2023/12/15 15:02:04;;;;;;;;;7.00;4.33;;;;;20.78;46.60;103726.28;4933449;28;51642;-74
2023/12/15 15:04:30;;;;;;;;;4.00;4.00;;;;;20.78;46.92;103724.50;4933822;28;46053;-74
2023/12/15 15:06:55;;;;;;;;;7.67;6.00;;;;;20.75;46.86;103724.69;4933164;28;45387;-74
2023/12/15 15:09:20;;;;;;;;;5.67;4.33;;;;;20.73;46.70;103729.25;4933404;28;45868;-74
2023/12/15 15:11:47;;;;;;;;;6.33;6.00;;;;;20.76;46.77;103715.81;4932557;28;46352;-74
2023/12/15 15:14:13;;;;;;;;;5.33;4.33;;;;;20.76;47.12;103717.63;4933228;28;46441;-74
2023/12/15 15:16:38;;;;;;;;;5.33;4.67;;;;;20.76;46.75;103725.56;4932882;28;45295;-74
2023/12/15 15:19:04;;;;;;;;;5.67;5.67;;;;;20.66;47.12;103722.66;4932926;28;45370;-75
2023/12/15 15:21:29;;;;;;;;;7.33;5.00;;;;;20.75;46.84;103735.28;4933761;28;45588;-74
2023/12/15 15:23:57;;;;;;;;;5.67;5.00;;;;;20.69;46.93;103733.88;4932981;28;46204;-75
2023/12/15 15:26:24;;;;;;;;;3.67;3.67;;;;;20.75;47.02;103745.88;4934878;28;45461;-74
2023/12/15 15:28:50;;;;;;;;;7.00;4.00;;;;;20.76;47.46;103746.72;4936424;28;45500;-75
2023/12/15 15:31:16;;;;;;;;;3.00;3.00;;;;;20.71;47.00;103741.75;4936265;28;45466;-73
2023/12/15 15:33:41;;;;;;;;;5.00;4.67;;;;;20.78;47.25;103753.59;4936214;28;47138;-73
2023/12/15 15:36:07;;;;;;;;;5.00;4.00;;;;;20.79;46.83;103747.34;4935909;28;49423;-74
2023/12/15 15:38:32;;;;;;;;;6.33;4.33;;;;;20.78;47.32;103756.25;4936930;28;45395;-73
2023/12/15 15:40:58;;;;;;;;;10.67;5.00;;;;;20.61;47.69;103728.22;4936150;28;45273;-74
2023/12/15 15:43:23;;;;;;;;;4.67;4.67;;;;;20.80;47.36;103759.66;4935071;28;45352;-74
2023/12/15 15:45:49;;;;;;;;;7.67;3.67;;;;;20.81;47.29;103760.50;4936015;28;45445;-74
2023/12/15 15:48:14;;;;;;;;;5.67;5.33;;;;;20.81;47.44;103761.34;4935899;28;45281;-73
2023/12/15 15:50:40;;;;;;;;;4.33;4.33;;;;;20.80;47.15;103759.66;4936089;28;45391;-73
2023/12/15 15:53:05;;;;;;;;;5.00;5.00;;;;;20.82;47.18;103764.81;4935602;28;46990;-74
2023/12/15 15:55:30;;;;;;;;;5.00;4.67;;;;;20.75;47.39;103759.09;4936047;28;45561;-74
2023/12/15 15:57:56;;;;;;;;;7.33;3.67;;;;;20.73;47.03;103753.91;4936345;28;45499;-74
2023/12/15 16:00:21;;;;;;;;;3.67;3.67;;;;;20.81;46.93;103765.78;4935722;28;45371;-74
2023/12/15 16:02:47;;;;;;;;;4.00;2.67;;;;;20.78;47.48;103774.78;4936000;28;46219;-74
2023/12/15 16:05:12;;;;;;;;;3.33;3.33;;;;;20.70;46.91;103764.69;4935736;28;45542;-74
2023/12/15 16:07:37;;;;;;;;;4.00;4.00;;;;;20.72;46.94;103770.72;4933937;28;45382;-74
2023/12/15 16:10:03;;;;;;;;;3.67;2.67;;;;;20.78;46.92;103785.38;4933938;28;47980;-74
2023/12/15 16:12:29;;;;;;;;;7.67;5.00;;;;;20.72;46.83;103778.66;4936311;28;46264;-74
2023/12/15 16:14:54;;;;;;;;;5.67;3.67;;;;;20.74;47.32;103784.69;4935490;28;45522;-74
2023/12/15 16:17:19;;;;;;;;;4.00;2.33;;;;;20.77;47.19;103791.59;4935234;28;46015;-74
2023/12/15 16:19:45;;;;;;;;;4.00;3.33;;;;;20.62;46.67;103764.34;4935907;28;45487;-74
2023/12/15 16:22:10;;;;;;;;;4.67;2.67;;;;;20.68;47.24;103777.19;4935186;28;46250;-74
2023/12/15 16:24:35;;;;;;;;;4.00;3.33;;;;;20.77;46.96;103777.50;4935335;28;55384;-74
2023/12/15 16:27:01;;;;;;;;;3.67;3.67;;;;;20.76;46.74;103789.91;4936506;28;46328;-74
2023/12/15 16:29:26;;;;;;;;;5.00;4.00;;;;;20.67;47.13;103783.41;4934500;28;45270;-74
2023/12/15 16:31:53;;;;;;;;;4.00;4.00;;;;;20.64;46.61;103778.31;4935745;28;46825;-74
2023/12/15 16:34:19;;;;;;;;;2.67;2.67;;;;;20.47;47.13;103750.31;4935162;28;45573;-74
2023/12/15 16:36:44;;;;;;;;;6.00;3.00;;;;;20.71;46.86;103792.00;4935385;28;45403;-74
2023/12/15 16:39:13;;;;;;;;;3.67;3.67;;;;;20.69;46.91;103797.38;4934421;28;49950;-74
2023/12/15 16:41:40;;;;;;;;;6.33;4.33;;;;;20.73;46.49;103804.19;4935195;28;46017;-74
2023/12/15 16:44:06;;;;;;;;;9.33;4.00;;;;;20.65;46.71;103797.69;4934711;28;45494;-73
2023/12/15 16:46:31;;;;;;;;;4.00;3.00;;;;;20.73;46.88;103813.91;4935942;28;45462;-73
2023/12/15 16:48:57;;;;;;;;;4.67;3.67;;;;;20.71;47.02;103816.66;4918358;28;45893;-73
2023/12/15 16:51:25;;;;;;;;;4.67;3.33;;;;;20.72;46.44;103820.16;4934971;28;46088;-73
2023/12/15 16:53:51;;;;;;;;;4.67;4.67;;;;;20.72;46.98;103817.50;4935002;28;45824;-73
2023/12/15 16:56:16;;;;;;;;;4.67;2.00;;;;;20.70;46.40;103809.69;4934653;28;45421;-74
2023/12/15 16:58:42;;;;;;;;;5.33;5.33;;;;;20.71;46.12;103819.28;4934753;28;45344;-74
2023/12/15 17:01:07;;;;;;;;;3.00;2.67;;;;;20.68;46.39;103813.38;4934794;28;46407;-74
2023/12/15 17:03:33;;;;;;;;;3.33;3.33;;;;;20.71;46.36;103816.66;4934617;28;62037;-74
2023/12/15 17:05:58;;;;;;;;;4.00;2.67;;;;;20.69;46.61;103821.19;4935430;28;45889;-72
2023/12/15 17:08:23;;;;;;;;;5.67;4.00;;;;;20.70;46.57;103822.91;4917442;28;45605;-74
2023/12/15 17:10:49;;;;;;;;;4.00;3.67;;;;;20.62;46.62;103811.97;4934939;28;46249;-74
2023/12/15 17:13:14;;;;;;;;;4.00;4.00;;;;;20.46;46.54;103785.63;4934169;28;45475;-74
2023/12/15 17:15:39;;;;;;;;;4.00;3.67;;;;;20.60;46.49;103806.78;4934920;28;45574;-73
2023/12/15 17:18:05;;;;;;;;;3.67;3.67;;;;;20.69;46.91;103829.13;4935269;28;45604;-74
2023/12/15 17:20:31;;;;;;;;;4.67;3.67;;;;;20.64;46.69;103823.28;4934715;28;46266;-74
2023/12/15 17:22:57;;;;;;;;;5.00;5.00;;;;;20.69;46.68;103826.47;4934818;28;45414;-73
2023/12/15 17:25:23;;;;;;;;;4.33;3.00;;;;;20.69;46.46;103828.28;4934759;28;45468;-73
2023/12/15 17:27:48;;;;;;;;;3.67;3.67;;;;;20.70;46.53;103832.63;4934744;28;45438;-73
2023/12/15 17:30:14;;;;;;;;;6.67;5.00;;;;;20.69;46.30;103834.41;4934576;28;45837;-73
2023/12/15 17:32:39;;;;;;;;;2.67;2.67;;;;;20.65;46.47;103819.69;4934471;28;45435;-74
2023/12/15 17:35:05;;;;;;;;;2.00;2.00;;;;;20.62;46.21;103815.47;4934187;28;55208;-74
2023/12/15 17:37:31;;;;;;;;;2.33;2.33;;;;;20.69;46.66;103823.84;4935299;28;45910;-75
2023/12/15 17:39:56;;;;;;;;;4.33;4.33;;;;;20.67;46.26;103820.44;4934664;28;45455;-75
2023/12/15 17:42:22;;;;;;;;;4.00;2.67;;;;;20.67;46.36;103822.25;4934383;28;45801;-74
2023/12/15 17:44:47;;;;;;;;;3.33;2.33;;;;;20.65;46.15;103821.50;4934147;28;45702;-74
2023/12/15 17:47:12;;;;;;;;;2.00;2.00;;;;;20.67;46.36;103825.75;4933733;28;45467;-72
2023/12/15 17:49:38;;;;;;;;;3.00;3.00;;;;;20.63;46.22;103827.72;4930597;28;61951;-73
2023/12/15 17:52:04;;;;;;;;;3.00;3.00;;;;;20.68;46.03;103838.03;4933765;28;45640;-73
2023/12/15 17:54:29;;;;;;;;;4.67;3.67;;;;;20.65;46.43;103834.72;4934953;28;45399;-74
2023/12/15 17:56:54;;;;;;;;;5.67;2.67;;;;;20.59;45.87;103828.03;4934607;28;45243;-72
2023/12/15 17:59:20;;;;;;;;;2.67;2.67;;;;;20.62;46.15;103833.97;4933877;28;45449;-74
2023/12/15 18:01:45;;;;;;;;;4.67;3.33;;;;;20.59;46.26;103841.25;4917417;28;45510;-74
2023/12/15 18:04:10;;;;;;;;;5.00;3.00;;;;;20.66;46.42;103849.66;4933860;28;46215;-73
2023/12/15 18:06:36;;;;;;;;;3.67;3.67;;;;;20.55;46.53;103834.47;4934038;28;45701;-74
2023/12/15 18:09:01;;;;;;;;;4.33;3.33;;;;;20.63;46.00;103854.19;4934408;28;46211;-74
2023/12/15 18:11:29;;;;;;;;;3.33;3.33;;;;;20.65;46.13;103855.88;4918146;28;45685;-73
2023/12/15 18:13:55;;;;;;;;;4.00;2.67;;;;;20.65;46.27;103867.31;4934574;28;45364;-74
2023/12/15 18:16:23;;;;;;;;;3.67;2.67;;;;;19.55;46.34;103696.00;4935569;28;45347;-73
2023/12/15 18:18:49;;;;;;;;;5.00;3.67;;;;;20.65;46.15;103869.13;4936895;28;46196;-78
2023/12/15 18:21:16;;;;;;;;;4.00;3.33;;;;;20.65;46.52;103874.41;4937131;28;45656;-74
2023/12/15 18:23:41;;;;;;;;;3.00;3.00;;;;;20.56;46.06;103860.81;4938175;28;45269;-72
2023/12/15 18:26:08;;;;;;;;;3.33;2.33;;;;;20.65;46.20;103877.03;4937647;28;45454;-75
2023/12/15 18:28:33;;;;;;;;;4.67;3.00;;;;;20.55;45.85;103872.34;4938011;28;46314;-74
2023/12/15 18:30:58;;;;;;;;;3.33;2.67;;;;;20.63;46.09;103880.63;4937950;28;45360;-75
2023/12/15 18:33:23;;;;;;;;;1.67;1.67;;;;;20.60;46.24;103887.94;4938080;28;45390;-74
2023/12/15 18:35:49;;;;;;;;;7.00;3.00;;;;;20.66;45.75;103892.00;4937788;28;45387;-74
2023/12/15 18:38:14;;;;;;;;;3.67;3.67;;;;;20.62;46.03;103880.75;4937849;28;46053;-75
2023/12/15 18:40:42;;;;;;;;;4.33;4.33;;;;;20.41;45.75;103836.16;4937719;28;45407;-75
2023/12/15 18:43:07;;;;;;;;;3.00;3.00;;;;;20.57;46.25;103861.66;4937802;28;45534;-74
2023/12/15 18:45:33;;;;;;;;;5.67;3.67;;;;;20.60;46.05;103880.00;4937908;28;45327;-75
2023/12/15 18:47:58;;;;;;;;;4.67;4.33;;;;;20.56;46.04;103867.88;4937777;28;46046;-74
2023/12/15 18:50:24;;;;;;;;;6.00;3.67;;;;;20.58;46.00;103884.53;4937331;28;45861;-74
2023/12/15 18:52:49;;;;;;;;;3.00;3.00;;;;;20.52;45.70;103883.13;4937759;28;47075;-74
2023/12/15 18:55:14;;;;;;;;;2.67;1.67;;;;;20.62;45.98;103897.47;4937554;28;50867;-74